Time;durP1;ratioP1;P1;durP2;ratioP2;P2;SDS_P1;SDS_P2;PMS_P1;PMS_P2;Temp;Humidity;BMP_temperature;BMP_pressure;BME280_temperature;BME280_humidity;BME280_pressure;Samples;Min_cycle;Max_cycle;Signal;HPM_P1;HPM_P2
2023/10/30 00:02:09;;;;;;;7.78;0.50;;;;;;;17.88;60.16;99237.53;5308681;26;20103;-93
2023/10/30 00:04:35;;;;;;;0.00;0.00;;;;;;;17.87;60.17;99233.22;5312514;26;20083;-94
2023/10/30 00:07:00;;;;;;;0.00;0.00;;;;;;;17.92;60.16;99241.63;5320212;26;20055;-94
2023/10/30 00:09:26;;;;;;;0.00;0.00;;;;;;;17.84;60.17;99247.44;5307838;26;20064;-93
2023/10/30 00:11:51;;;;;;;0.00;0.00;;;;;;;17.87;60.17;99249.84;5307587;26;20090;-94
2023/10/30 00:14:17;;;;;;;0.00;0.00;;;;;;;17.84;60.15;99249.22;5307754;26;20115;-94
2023/10/30 00:16:42;;;;;;;0.00;0.00;;;;;;;17.84;60.15;99260.59;5307470;26;20076;-95
2023/10/30 00:19:07;;;;;;;0.00;0.00;;;;;;;17.80;60.16;99256.50;5307850;26;20103;-95
2023/10/30 00:21:33;;;;;;;0.00;0.00;;;;;;;17.77;60.16;99254.94;5307578;26;20115;-94
2023/10/30 00:23:59;;;;;;;0.00;0.00;;;;;;;17.83;60.15;99251.03;5307329;26;20052;-95
2023/10/30 00:26:26;;;;;;;0.00;0.00;;;;;;;17.83;60.16;99251.03;5307348;26;20421;-96
2023/10/30 00:28:51;;;;;;;0.00;0.00;;;;;;;17.76;60.15;99247.13;5306916;26;20060;-95
2023/10/30 00:31:17;;;;;;;0.00;0.00;;;;;;;17.77;60.16;99246.19;5306686;26;20395;-95
2023/10/30 00:33:43;;;;;;;0.60;0.60;;;;;;;17.72;60.15;99243.00;5306965;26;20065;-94
2023/10/30 00:36:08;;;;;;;0.25;0.25;;;;;;;17.73;60.15;99250.78;5305690;26;20096;-95
2023/10/30 00:38:33;;;;;;;0.00;0.00;;;;;;;17.77;60.16;99248.81;5307116;26;20073;-94
2023/10/30 00:40:59;;;;;;;0.82;0.40;;;;;;;17.76;60.15;99247.13;5307030;26;20116;-93
2023/10/30 00:43:25;;;;;;;2.75;0.98;;;;;;;17.76;60.15;99242.72;5307332;26;20149;-94
2023/10/30 00:45:51;;;;;;;0.00;0.00;;;;;;;17.62;60.15;99242.78;5307105;26;20100;-94
2023/10/30 00:48:17;;;;;;;0.00;0.00;;;;;;;17.72;60.15;99246.47;5306053;26;20041;-93
2023/10/30 00:50:42;;;;;;;2.45;0.52;;;;;;;17.76;60.15;99239.25;5307304;26;20076;-94
2023/10/30 00:53:08;;;;;;;0.20;0.20;;;;;;;17.72;60.15;99243.84;5306323;26;27241;-95
2023/10/30 00:55:37;;;;;;;1.45;0.73;;;;;;;17.75;60.15;99241.03;5307232;26;20405;-95
2023/10/30 00:58:07;;;;;;;0.00;0.00;;;;;;;17.81;60.16;99228.38;5289405;26;20048;-94
2023/10/30 01:00:32;;;;;;;0.03;0.03;;;;;;;17.77;60.16;99236.50;5307693;26;20078;-93
2023/10/30 01:02:58;;;;;;;0.00;0.00;;;;;;;17.84;60.15;99222.91;5307447;26;20061;-95
2023/10/30 01:05:23;;;;;;;0.00;0.00;;;;;;;17.78;60.16;99227.66;5307232;26;20081;-95
2023/10/30 01:07:49;;;;;;;0.05;0.05;;;;;;;17.76;60.15;99232.19;5306862;26;20099;-95
2023/10/30 01:10:14;;;;;;;0.70;0.60;;;;;;;17.78;60.16;99224.19;5307012;26;20497;-93
2023/10/30 01:12:39;;;;;;;0.00;0.00;;;;;;;17.86;60.16;99227.09;5306765;26;25918;-95
2023/10/30 01:15:05;;;;;;;0.00;0.00;;;;;;;17.91;60.16;99230.25;5306986;26;20152;-93
2023/10/30 01:17:31;;;;;;;0.00;0.00;;;;;;;17.91;60.16;99224.16;5289127;26;20045;-94
2023/10/30 01:19:56;;;;;;;0.20;0.10;;;;;;;17.86;60.16;99224.47;5306564;26;20095;-94
2023/10/30 01:22:22;;;;;;;0.17;0.17;;;;;;;17.89;60.16;99226.03;5306974;26;20108;-93
2023/10/30 01:24:47;;;;;;;4.20;0.57;;;;;;;17.84;60.15;99220.28;5306858;26;20092;-94
2023/10/30 01:27:12;;;;;;;0.00;0.00;;;;;;;17.92;60.17;99221.41;5307267;26;20079;-94
2023/10/30 01:29:38;;;;;;;0.00;0.00;;;;;;;17.83;60.16;99219.44;5306977;26;28045;-94
2023/10/30 01:32:04;;;;;;;0.00;0.00;;;;;;;17.91;60.16;99225.00;5307723;26;20138;-94
2023/10/30 01:34:29;;;;;;;0.00;0.00;;;;;;;17.81;60.16;99223.13;5294208;26;20048;-96
2023/10/30 01:36:55;;;;;;;0.80;0.30;;;;;;;17.88;60.16;99225.22;5319660;26;20091;-94
2023/10/30 01:39:20;;;;;;;0.00;0.00;;;;;;;17.86;60.16;99213.94;5308703;26;20076;-95
2023/10/30 01:41:45;;;;;;;0.00;0.00;;;;;;;17.90;60.16;99217.19;5307507;26;20079;-94
2023/10/30 01:44:11;;;;;;;0.00;0.00;;;;;;;17.87;60.17;99213.00;5307559;26;22726;-94
2023/10/30 01:46:36;;;;;;;0.00;0.00;;;;;;;17.89;60.16;99213.72;5307819;26;20120;-93
2023/10/30 01:49:02;;;;;;;0.00;0.00;;;;;;;17.85;60.16;99207.00;5308076;26;20068;-95
2023/10/30 01:51:27;;;;;;;0.00;0.00;;;;;;;17.81;60.16;99208.16;5307651;26;20156;-94
2023/10/30 01:53:53;;;;;;;0.35;0.35;;;;;;;17.81;60.16;99209.97;5308255;26;20132;-94
2023/10/30 01:56:18;;;;;;;0.00;0.00;;;;;;;17.80;60.16;99211.75;5307056;26;20554;-94
2023/10/30 01:58:44;;;;;;;0.00;0.00;;;;;;;17.74;60.15;99210.41;5307800;26;20074;-95
2023/10/30 02:01:09;;;;;;;0.00;0.00;;;;;;;17.88;60.16;99211.19;5290024;26;20071;-94
2023/10/30 02:03:35;;;;;;;25.23;0.80;;;;;;;17.83;60.15;99213.31;5308306;26;20087;-94
2023/10/30 02:06:00;;;;;;;0.00;0.00;;;;;;;17.86;60.16;99207.84;5307253;26;20064;-95
2023/10/30 02:08:26;;;;;;;0.00;0.00;;;;;;;17.87;60.16;99212.16;5306951;26;20060;-95
2023/10/30 02:10:52;;;;;;;0.00;0.00;;;;;;;17.84;60.15;99202.69;5308345;26;20115;-94
2023/10/30 02:13:18;;;;;;;0.62;0.62;;;;;;;17.83;60.15;99200.16;5290111;26;20064;-94
2023/10/30 02:15:43;;;;;;;0.00;0.00;;;;;;;17.92;60.16;99196.88;5308287;26;20582;-95
2023/10/30 02:18:10;;;;;;;0.00;0.00;;;;;;;17.90;60.16;99196.97;5308392;26;20113;-95
2023/10/30 02:20:36;;;;;;;2.40;0.95;;;;;;;17.81;60.16;99197.62;5327260;26;20080;-95
2023/10/30 02:23:02;;;;;;;0.00;0.00;;;;;;;17.92;60.17;99189.81;5308535;26;20062;-90
2023/10/30 02:25:27;;;;;;;0.00;0.00;;;;;;;17.80;60.16;99198.59;5307892;26;25384;-93
2023/10/30 02:27:52;;;;;;;0.00;0.00;;;;;;;17.90;60.16;99190.88;5308582;26;20116;-93
2023/10/30 02:30:18;;;;;;;4.82;1.10;;;;;;;17.89;60.16;99194.44;5308641;26;20102;-93
2023/10/30 02:32:45;;;;;;;0.00;0.00;;;;;;;17.84;60.17;99192.16;5308741;26;20051;-93
2023/10/30 02:35:15;;;;;;;0.25;0.25;;;;;;;17.84;60.15;99193.94;5308601;26;20578;-93
2023/10/30 02:37:40;;;;;;;4.18;0.85;;;;;;;17.75;60.15;99196.28;5308853;26;20061;-94
2023/10/30 02:40:06;;;;;;;0.00;0.00;;;;;;;17.95;60.17;99204.53;5308458;26;20122;-94
2023/10/30 02:42:32;;;;;;;0.00;0.00;;;;;;;17.81;60.16;99202.91;5290323;26;20376;-93
2023/10/30 02:44:57;;;;;;;0.00;0.00;;;;;;;17.93;60.17;99207.28;5327025;26;20103;-92
2023/10/30 02:47:24;;;;;;;0.00;0.00;;;;;;;17.86;60.16;99210.47;5308375;26;20456;-93
2023/10/30 02:49:50;;;;;;;0.00;0.00;;;;;;;17.84;60.17;99212.38;5327470;26;20422;-92
2023/10/30 02:52:15;;;;;;;0.00;0.00;;;;;;;17.90;60.16;99218.03;5308930;26;20055;-93
2023/10/30 02:54:41;;;;;;;0.00;0.00;;;;;;;17.94;60.17;99216.87;5326823;26;20052;-93
2023/10/30 02:57:06;;;;;;;0.00;0.00;;;;;;;17.80;60.16;99211.75;5308055;26;22006;-93
2023/10/30 02:59:32;;;;;;;0.00;0.00;;;;;;;17.76;60.15;99210.28;5309347;26;20099;-94
2023/10/30 03:01:58;;;;;;;2.83;0.47;;;;;;;17.80;60.16;99214.38;5309045;26;20052;-92
2023/10/30 03:04:24;;;;;;;0.00;0.00;;;;;;;17.75;60.15;99209.44;5309765;26;20723;-92
2023/10/30 03:06:49;;;;;;;0.05;0.05;;;;;;;17.68;60.15;99210.81;5322298;26;20045;-92
2023/10/30 03:09:14;;;;;;;0.00;0.00;;;;;;;17.72;60.15;99203.53;5311546;26;20100;-94
2023/10/30 03:11:40;;;;;;;0.52;0.52;;;;;;;17.74;60.16;99201.63;5307844;26;30314;-93
2023/10/30 03:14:06;;;;;;;0.00;0.00;;;;;;;17.73;60.16;99211.31;5307635;26;26980;-92
2023/10/30 03:16:31;;;;;;;0.10;0.10;;;;;;;17.74;60.15;99206.88;5308621;26;20108;-91
2023/10/30 03:18:57;;;;;;;0.55;0.55;;;;;;;17.76;60.15;99205.88;5308691;26;20060;-94
2023/10/30 03:21:22;;;;;;;0.55;0.15;;;;;;;17.74;60.16;99207.75;5308533;26;20071;-93
2023/10/30 03:23:48;;;;;;;0.00;0.00;;;;;;;17.75;60.16;99219.12;5308662;26;20100;-94
2023/10/30 03:26:13;;;;;;;0.00;0.00;;;;;;;17.76;60.15;99220.81;5308400;26;20072;-94
2023/10/30 03:28:39;;;;;;;0.00;0.00;;;;;;;17.68;60.15;99223.97;5308499;26;20703;-95
2023/10/30 03:31:06;;;;;;;0.52;0.32;;;;;;;17.68;60.15;99225.75;5308373;26;20410;-95
2023/10/30 03:33:31;;;;;;;0.10;0.10;;;;;;;17.60;60.14;99223.63;5290177;26;20103;-93
2023/10/30 03:35:56;;;;;;;0.30;0.30;;;;;;;17.74;60.15;99220.06;5307840;26;24790;-94
2023/10/30 03:38:22;;;;;;;0.20;0.10;;;;;;;17.73;60.15;99221.00;5307826;26;20414;-93
2023/10/30 03:40:47;;;;;;;0.10;0.10;;;;;;;17.59;60.15;99224.56;5307995;26;26146;-95
2023/10/30 03:43:15;;;;;;;0.00;0.00;;;;;;;17.67;60.15;99226.66;5307981;26;24409;-93
2023/10/30 03:45:40;;;;;;;0.00;0.00;;;;;;;17.67;60.15;99224.03;5309129;26;20080;-94
2023/10/30 03:48:06;;;;;;;0.00;0.00;;;;;;;17.71;60.15;99215.84;5308257;26;20060;-93
2023/10/30 03:50:31;;;;;;;0.00;0.00;;;;;;;17.67;60.15;99224.03;5308477;26;20142;-94
2023/10/30 03:52:57;;;;;;;0.00;0.00;;;;;;;17.71;60.15;99222.91;5308197;26;20143;-94
2023/10/30 03:55:22;;;;;;;0.10;0.10;;;;;;;17.67;60.15;99218.78;5308482;26;20075;-95
2023/10/30 03:57:48;;;;;;;1.45;1.17;;;;;;;17.66;60.15;99219.72;5308308;26;20091;-94
2023/10/30 04:00:13;;;;;;;0.22;0.22;;;;;;;17.60;60.14;99214.88;5307867;26;26096;-94
2023/10/30 04:02:39;;;;;;;0.00;0.00;;;;;;;17.69;60.14;99207.22;5290512;26;20063;-95
2023/10/30 04:05:06;;;;;;;0.00;0.00;;;;;;;17.72;60.16;99211.41;5307287;26;25822;-94
2023/10/30 04:07:31;;;;;;;0.65;0.43;;;;;;;17.64;60.15;99211.09;5290455;26;20080;-94
2023/10/30 04:09:57;;;;;;;0.00;0.00;;;;;;;17.65;60.15;99212.78;5308071;26;20056;-93
2023/10/30 04:12:22;;;;;;;0.00;0.00;;;;;;;17.60;60.14;99212.25;5308347;26;20063;-93
2023/10/30 04:14:47;;;;;;;0.00;0.00;;;;;;;17.65;60.15;99203.09;5308413;26;20116;-93
2023/10/30 04:17:13;;;;;;;0.00;0.00;;;;;;;17.65;60.15;99212.78;5308488;26;20081;-93
2023/10/30 04:19:38;;;;;;;0.10;0.10;;;;;;;17.61;60.15;99203.41;5308388;26;20065;-93
2023/10/30 04:22:04;;;;;;;0.00;0.00;;;;;;;17.58;60.14;99209.72;5308113;26;20060;-94
2023/10/30 04:24:29;;;;;;;0.00;0.00;;;;;;;17.64;60.15;99208.47;5308296;26;20068;-95
2023/10/30 04:26:54;;;;;;;0.00;0.00;;;;;;;17.64;60.15;99205.81;5307923;26;27584;-95
2023/10/30 04:29:20;;;;;;;2.10;0.65;;;;;;;17.65;60.15;99223.31;5309109;26;20422;-94
2023/10/30 04:31:45;;;;;;;0.00;0.00;;;;;;;17.54;60.15;99216.16;5309216;26;20105;-93
2023/10/30 04:34:11;;;;;;;0.00;0.00;;;;;;;17.53;60.14;99221.53;5308964;26;23744;-94
2023/10/30 04:36:36;;;;;;;0.00;0.00;;;;;;;17.62;60.16;99213.00;5322077;26;20138;-93
2023/10/30 04:39:02;;;;;;;0.62;0.43;;;;;;;17.70;60.15;99198.38;5312783;26;20091;-93
2023/10/30 04:41:27;;;;;;;0.10;0.10;;;;;;;17.66;60.15;99207.41;5307881;26;20072;-95
2023/10/30 04:43:53;;;;;;;0.00;0.00;;;;;;;17.66;60.15;99204.78;5326005;26;23563;-95
2023/10/30 04:46:18;;;;;;;0.00;0.00;;;;;;;17.73;60.15;99199.94;5308100;26;20076;-96
2023/10/30 04:48:43;;;;;;;0.00;0.00;;;;;;;17.66;60.15;99193.41;5308130;26;20064;-94
2023/10/30 04:51:09;;;;;;;0.00;0.00;;;;;;;17.64;60.15;99201.41;5307663;26;20107;-93
2023/10/30 04:53:34;;;;;;;0.00;0.00;;;;;;;17.57;60.14;99202.78;5307398;26;25154;-94
2023/10/30 04:56:02;;;;;;;0.35;0.35;;;;;;;17.61;60.14;99213.94;5307995;26;20414;-94
2023/10/30 04:58:27;;;;;;;0.30;0.15;;;;;;;17.63;60.15;99215.50;5308526;26;20048;-91
2023/10/30 05:00:53;;;;;;;0.47;0.47;;;;;;;17.64;60.15;99203.19;5308409;26;20083;-91
2023/10/30 05:03:18;;;;;;;0.00;0.00;;;;;;;17.64;60.16;99211.94;5307856;26;20413;-92
2023/10/30 05:05:44;;;;;;;0.00;0.00;;;;;;;17.60;60.15;99220.16;5307935;26;20405;-92
2023/10/30 05:08:09;;;;;;;0.52;0.35;;;;;;;17.67;60.15;99206.50;5307183;26;20176;-92
2023/10/30 05:10:34;;;;;;;0.00;0.00;;;;;;;17.61;60.14;99206.03;5307466;26;20356;-90
2023/10/30 05:13:00;;;;;;;0.00;0.00;;;;;;;17.68;60.15;99207.31;5307077;26;28182;-92
2023/10/30 05:15:25;;;;;;;0.10;0.10;;;;;;;17.57;60.15;99215.94;5308335;26;20161;-92
2023/10/30 05:17:51;;;;;;;0.00;0.00;;;;;;;17.59;60.15;99224.56;5308727;26;20328;-92
2023/10/30 05:20:16;;;;;;;0.00;0.00;;;;;;;17.49;60.14;99221.72;5308723;26;20403;-92
2023/10/30 05:22:43;;;;;;;0.00;0.00;;;;;;;17.54;60.15;99231.94;5308181;26;20112;-93
2023/10/30 05:25:08;;;;;;;0.00;0.00;;;;;;;17.47;60.14;99231.50;5290825;26;20056;-92
2023/10/30 05:27:34;;;;;;;0.10;0.10;;;;;;;17.63;60.15;99241.84;5308294;26;20319;-93
2023/10/30 05:29:59;;;;;;;1.37;1.27;;;;;;;17.62;60.15;99242.78;5308683;26;20048;-92
2023/10/30 05:32:25;;;;;;;0.00;0.00;;;;;;;17.60;60.15;99239.41;5308617;26;20071;-92
2023/10/30 05:34:52;;;;;;;0.00;0.00;;;;;;;17.56;60.15;99245.00;5308659;26;20098;-92
2023/10/30 05:37:17;;;;;;;0.00;0.00;;;;;;;17.58;60.14;99246.59;5309136;26;20115;-92
2023/10/30 05:39:43;;;;;;;0.00;0.00;;;;;;;17.51;60.14;99250.59;5309101;26;20452;-91
2023/10/30 05:42:08;;;;;;;0.00;0.00;;;;;;;17.50;60.14;99251.50;5308776;26;20084;-92
2023/10/30 05:44:34;;;;;;;0.10;0.10;;;;;;;17.54;60.15;99255.63;5308671;26;25067;-92
2023/10/30 05:46:59;;;;;;;0.00;0.00;;;;;;;17.46;60.14;99256.13;5308709;26;20061;-91
2023/10/30 05:49:25;;;;;;;0.00;0.00;;;;;;;17.44;60.13;99250.12;5308940;26;20044;-91
2023/10/30 05:51:53;;;;;;;0.00;0.00;;;;;;;17.52;60.14;99256.69;5308964;26;20627;-91
2023/10/30 05:54:18;;;;;;;0.10;0.10;;;;;;;17.58;60.14;99258.91;5308720;26;20056;-92
2023/10/30 05:56:44;;;;;;;0.00;0.00;;;;;;;17.50;60.14;99268.13;5309472;26;20141;-93
2023/10/30 05:59:09;;;;;;;0.20;0.20;;;;;;;17.35;60.14;99276.25;5327919;26;20074;-92
2023/10/30 06:01:35;;;;;;;0.00;0.00;;;;;;;17.49;60.14;99271.72;5308884;26;20146;-92
2023/10/30 06:04:00;;;;;;;1.73;0.88;;;;;;;17.44;60.13;99276.44;5310135;26;20111;-91
2023/10/30 06:06:25;;;;;;;0.00;0.00;;;;;;;17.61;60.14;99271.84;5322521;26;27566;-89
2023/10/30 06:08:51;;;;;;;0.22;0.22;;;;;;;17.58;60.14;99270.25;5312726;26;20081;-90
2023/10/30 06:11:16;;;;;;;0.00;0.00;;;;;;;17.61;60.14;99277.09;5308586;26;20066;-91
2023/10/30 06:13:42;;;;;;;0.00;0.00;;;;;;;17.45;60.13;99286.03;5327081;26;20083;-91
2023/10/30 06:16:13;;;;;;;0.00;0.00;;;;;;;17.59;60.14;99276.37;5308595;26;20104;-92
2023/10/30 06:18:39;;;;;;;0.00;0.00;;;;;;;17.66;60.15;99278.47;5290033;26;20057;-91
2023/10/30 06:21:07;;;;;;;0.10;0.10;;;;;;;17.76;60.15;99278.72;5308658;26;20056;-91
2023/10/30 06:23:36;;;;;;;0.00;0.00;;;;;;;17.74;60.15;99280.59;5309103;26;20060;-91
2023/10/30 06:26:07;;;;;;;0.00;0.00;;;;;;;17.85;60.17;99278.09;5308390;26;20056;-92
2023/10/30 06:28:33;;;;;;;1.45;0.52;;;;;;;17.91;60.16;99285.53;5289857;26;20100;-92
2023/10/30 06:30:59;;;;;;;0.10;0.00;;;;;;;17.98;60.16;99284.19;5306972;26;26827;-92
2023/10/30 06:33:25;;;;;;;0.00;0.00;;;;;;;17.98;60.17;99272.78;5308270;26;20125;-93
2023/10/30 06:36:00;;;;;;;0.00;0.00;;;;;;;18.09;60.18;99271.09;5308267;26;20429;-93
2023/10/30 06:38:25;;;;;;;0.00;0.00;;;;;;;18.12;60.17;99283.22;5308305;26;20118;-93
2023/10/30 06:40:51;;;;;;;0.00;0.00;;;;;;;18.18;60.18;99274.03;5308180;26;20070;-93
2023/10/30 06:43:16;;;;;;;0.00;0.00;;;;;;;18.26;60.18;99290.16;5308626;26;20108;-94
2023/10/30 06:45:41;;;;;;;0.00;0.00;;;;;;;18.27;60.18;99294.47;5308409;26;20053;-93
2023/10/30 06:48:07;;;;;;;0.00;0.00;;;;;;;18.35;60.19;99300.03;5308413;26;20071;-92
2023/10/30 06:50:33;;;;;;;0.37;0.15;;;;;;;18.41;60.19;99297.78;5308410;26;20079;-93
2023/10/30 06:52:58;;;;;;;0.00;0.00;;;;;;;18.48;60.20;99300.84;5308363;26;20409;-93
2023/10/30 06:55:23;;;;;;;0.00;0.00;;;;;;;18.51;60.19;99299.78;5308450;26;20425;-93
2023/10/30 06:57:49;;;;;;;0.15;0.15;;;;;;;18.56;60.20;99295.84;5308195;26;20067;-93
2023/10/30 07:00:14;;;;;;;0.00;0.00;;;;;;;18.45;60.19;99298.41;5307855;26;26094;-94
2023/10/30 07:02:41;;;;;;;0.00;0.00;;;;;;;18.64;60.21;99303.25;5307694;26;20079;-94
2023/10/30 07:05:06;;;;;;;0.00;0.00;;;;;;;18.75;60.20;99300.69;5307863;26;20059;-93
2023/10/30 07:07:32;;;;;;;0.00;0.00;;;;;;;18.63;60.21;99299.75;5307781;26;20056;-93
2023/10/30 07:09:57;;;;;;;0.43;0.22;;;;;;;18.76;60.21;99294.44;5307884;26;20067;-93
2023/10/30 07:12:23;;;;;;;0.10;0.10;;;;;;;18.93;60.22;99301.97;5307939;26;20091;-93
2023/10/30 07:14:48;;;;;;;0.68;0.20;;;;;;;18.93;60.22;99293.22;5307393;26;20605;-94
2023/10/30 07:17:13;;;;;;;0.00;0.00;;;;;;;18.92;60.21;99296.78;5307319;26;20826;-94
2023/10/30 07:19:39;;;;;;;0.08;0.08;;;;;;;18.95;60.22;99296.59;5307872;26;20071;-93
2023/10/30 07:22:05;;;;;;;0.17;0.17;;;;;;;19.11;60.22;99306.84;5307906;26;20088;-94
2023/10/30 07:24:30;;;;;;;0.00;0.00;;;;;;;19.20;60.23;99301.72;5307407;26;20066;-93
2023/10/30 07:26:57;;;;;;;0.00;0.00;;;;;;;19.22;60.23;99299.81;5307610;26;20178;-93
2023/10/30 07:29:23;;;;;;;0.00;0.00;;;;;;;19.38;60.24;99296.84;5308136;26;20056;-93
2023/10/30 07:31:49;;;;;;;0.00;0.00;;;;;;;19.55;60.25;99309.66;5326114;26;20094;-93
2023/10/30 07:34:14;;;;;;;0.17;0.10;;;;;;;19.62;60.25;99308.22;5309531;26;20070;-94
2023/10/30 07:36:40;;;;;;;0.00;0.00;;;;;;;19.79;60.26;99306.94;5311590;26;20047;-94
2023/10/30 07:39:07;;;;;;;9.13;0.45;;;;;;;19.93;60.26;99308.53;5307740;26;20072;-94
2023/10/30 07:41:33;;;;;;;0.00;0.00;;;;;;;20.00;60.27;99311.53;5308150;26;20125;-94
2023/10/30 07:43:59;;;;;;;0.00;0.00;;;;;;;19.99;60.27;99313.31;5307636;26;20056;-95
2023/10/30 07:46:25;;;;;;;0.00;0.00;;;;;;;19.90;60.27;99314.06;5289645;26;20048;-93
2023/10/30 07:48:50;;;;;;;0.00;0.00;;;;;;;20.15;60.29;99316.47;5307879;26;20097;-93
2023/10/30 07:51:15;;;;;;;0.00;0.00;;;;;;;20.17;60.29;99306.59;5307905;26;20092;-93
2023/10/30 07:53:41;;;;;;;0.57;0.57;;;;;;;20.28;60.28;99308.41;5307173;26;24053;-93
2023/10/30 07:56:06;;;;;;;2.28;0.95;;;;;;;20.26;60.29;99320.06;5307508;26;20419;-94
2023/10/30 07:58:32;;;;;;;0.00;0.00;;;;;;;20.30;60.29;99318.84;5307493;26;20069;-94
2023/10/30 08:00:57;;;;;;;0.37;0.37;;;;;;;20.40;60.29;99315.41;5307553;26;20068;-94
2023/10/30 08:03:23;;;;;;;0.35;0.20;;;;;;;20.51;60.30;99318.00;5307703;26;20119;-93
2023/10/30 08:05:48;;;;;;;0.00;0.00;;;;;;;20.67;60.31;99319.44;5307918;26;20044;-93
2023/10/30 08:08:17;;;;;;;0.00;0.00;;;;;;;20.83;60.31;99328.66;5307663;26;20103;-94
2023/10/30 08:10:44;;;;;;;0.00;0.00;;;;;;;20.78;60.31;99303.53;5308145;26;20075;-93
2023/10/30 08:13:09;;;;;;;0.88;0.37;;;;;;;20.95;60.33;99320.69;5289356;26;20670;-94
2023/10/30 08:15:35;;;;;;;0.03;0.03;;;;;;;21.05;60.32;99311.03;5307227;26;20145;-94
2023/10/30 08:18:02;;;;;;;0.00;0.00;;;;;;;21.03;60.33;99310.31;5307446;26;20091;-93
2023/10/30 08:20:28;;;;;;;0.20;0.17;;;;;;;21.26;60.34;99308.44;5289393;26;20060;-94
2023/10/30 08:22:54;;;;;;;1.70;1.60;;;;;;;21.24;60.34;99302.44;5307834;26;20076;-93
2023/10/30 08:25:19;;;;;;;0.10;0.10;;;;;;;21.46;60.35;99307.63;5326115;26;20062;-94
2023/10/30 08:27:45;;;;;;;0.00;0.00;;;;;;;21.55;60.35;99301.56;5306727;26;22391;-93
2023/10/30 08:30:11;;;;;;;0.00;0.00;;;;;;;21.71;60.37;99286.03;5326101;26;20101;-93
2023/10/30 08:32:39;;;;;;;0.00;0.00;;;;;;;21.74;60.36;99293.72;5289394;26;20064;-93
2023/10/30 08:35:05;;;;;;;0.10;0.10;;;;;;;21.72;60.37;99289.53;5307941;26;20067;-94
2023/10/30 08:37:30;;;;;;;0.00;0.00;;;;;;;21.72;60.37;99285.06;5307382;26;20068;-94
2023/10/30 08:39:56;;;;;;;0.25;0.25;;;;;;;21.80;60.37;99289.72;5307203;26;20111;-93
2023/10/30 08:42:21;;;;;;;0.15;0.10;;;;;;;21.78;60.37;99288.19;5307240;26;20115;-93
2023/10/30 08:44:47;;;;;;;0.00;0.00;;;;;;;21.89;60.38;99286.28;5307235;26;20093;-93
2023/10/30 08:47:14;;;;;;;0.03;0.03;;;;;;;21.96;60.38;99297.19;5288966;26;20071;-93
2023/10/30 08:49:39;;;;;;;7.00;0.40;;;;;;;21.93;60.37;99292.16;5307671;26;20078;-94
2023/10/30 08:52:05;;;;;;;0.70;0.30;;;;;;;22.06;60.38;99287.50;5308285;26;20068;-94
2023/10/30 08:54:31;;;;;;;1.20;0.90;;;;;;;22.21;60.39;99287.97;5289953;26;20036;-93
2023/10/30 08:56:56;;;;;;;0.00;0.00;;;;;;;22.23;60.39;99299.28;5308259;26;20064;-93
2023/10/30 08:59:22;;;;;;;0.10;0.10;;;;;;;22.28;60.40;99282.03;5308143;26;20124;-92
2023/10/30 09:01:47;;;;;;;0.00;0.00;;;;;;;22.45;60.40;99279.66;5309108;26;20420;-93
2023/10/30 09:04:12;;;;;;;0.15;0.15;;;;;;;22.41;60.41;99281.75;5316989;26;26515;-93
2023/10/30 09:06:38;;;;;;;0.25;0.10;;;;;;;22.51;60.41;99284.44;5315274;26;20057;-93
2023/10/30 09:09:03;;;;;;;0.00;0.00;;;;;;;22.67;60.42;99284.75;5308563;26;20375;-94
2023/10/30 09:11:29;;;;;;;0.37;0.28;;;;;;;22.81;60.43;99284.41;5307846;26;24914;-94
2023/10/30 09:13:54;;;;;;;0.00;0.00;;;;;;;23.04;60.44;99282.31;5308224;26;20048;-93
2023/10/30 09:16:20;;;;;;;0.00;0.00;;;;;;;23.15;60.44;99286.63;5307724;26;20068;-94
2023/10/30 09:18:45;;;;;;;0.00;0.00;;;;;;;23.30;60.45;99284.41;5308134;26;20064;-93
2023/10/30 09:21:12;;;;;;;0.00;0.00;;;;;;;23.51;60.46;99280.59;5308252;26;20110;-93
2023/10/30 09:23:37;;;;;;;0.17;0.00;;;;;;;23.52;60.46;99286.75;5308407;26;20122;-93
2023/10/30 09:26:03;;;;;;;0.00;0.00;;;;;;;23.64;60.46;99300.72;5307974;26;20080;-94
2023/10/30 09:28:28;;;;;;;0.00;0.00;;;;;;;23.62;60.46;99306.19;5307925;26;20068;-94
2023/10/30 09:30:54;;;;;;;0.17;0.10;;;;;;;23.68;60.47;99305.63;5308007;26;20060;-93
2023/10/30 09:33:19;;;;;;;0.00;0.00;;;;;;;23.72;60.46;99306.19;5308041;26;20056;-93
2023/10/30 09:35:44;;;;;;;0.00;0.00;;;;;;;23.75;60.47;99292.59;5308161;26;20124;-94
2023/10/30 09:38:10;;;;;;;0.00;0.00;;;;;;;23.78;60.47;99302.94;5308071;26;20116;-92
2023/10/30 09:40:35;;;;;;;0.08;0.08;;;;;;;23.93;60.48;99288.22;5307914;26;20064;-94
2023/10/30 09:43:04;;;;;;;0.32;0.28;;;;;;;23.83;60.48;99290.06;5308211;26;20049;-94
2023/10/30 09:45:29;;;;;;;0.00;0.00;;;;;;;23.65;60.45;99295.25;5308478;26;20065;-94
2023/10/30 09:47:55;;;;;;;0.00;0.00;;;;;;;23.75;60.47;99296.09;5307674;26;20119;-90
2023/10/30 09:50:21;;;;;;;0.00;0.00;;;;;;;23.72;60.46;99284.94;5289955;26;20067;-90
2023/10/30 09:52:48;;;;;;;0.55;0.55;;;;;;;23.67;60.47;99280.03;5308463;26;20044;-91
2023/10/30 09:55:15;;;;;;;0.00;0.00;;;;;;;23.71;60.47;99278.78;5308466;26;20102;-91
2023/10/30 09:57:41;;;;;;;0.15;0.15;;;;;;;23.74;60.46;99288.28;5308199;26;20052;-92
2023/10/30 10:00:07;;;;;;;0.00;0.00;;;;;;;23.74;60.48;99290.94;5307913;26;20072;-91
2023/10/30 10:02:34;;;;;;;1.70;0.20;;;;;;;23.83;60.48;99287.41;5289625;26;20093;-91
2023/10/30 10:04:59;;;;;;;0.00;0.00;;;;;;;23.95;60.48;99288.91;5308404;26;20076;-90
2023/10/30 10:07:26;;;;;;;0.00;0.00;;;;;;;24.00;60.49;99283.16;5308078;26;20077;-91
2023/10/30 10:09:58;;;;;;;0.00;0.00;;;;;;;24.09;60.49;99280.44;5308180;26;20072;-92
2023/10/30 10:12:24;;;;;;;0.10;0.10;;;;;;;24.05;60.49;99281.72;5289889;26;20028;-92
2023/10/30 10:14:49;;;;;;;0.20;0.20;;;;;;;24.08;60.49;99269.94;5307737;26;20105;-92
2023/10/30 10:17:14;;;;;;;1.30;0.88;;;;;;;24.11;60.49;99270.50;5307989;26;20074;-91
2023/10/30 10:19:45;;;;;;;0.00;0.00;;;;;;;24.09;60.49;99279.59;5308074;26;20079;-93
2023/10/30 10:22:10;;;;;;;0.00;0.00;;;;;;;24.18;60.49;99284.06;5289592;26;20070;-92
2023/10/30 10:24:39;;;;;;;0.00;0.00;;;;;;;24.26;60.50;99275.34;5307767;26;20493;-90
2023/10/30 10:27:06;;;;;;;0.00;0.00;;;;;;;24.28;60.50;99263.59;5307879;26;20729;-92
2023/10/30 10:29:32;;;;;;;0.00;0.00;;;;;;;24.19;60.49;99275.94;5309490;26;20056;-92
2023/10/30 10:31:58;;;;;;;0.00;0.00;;;;;;;24.10;60.49;99275.97;5317478;26;20063;-91
2023/10/30 10:34:23;;;;;;;0.00;0.00;;;;;;;24.04;60.48;99273.91;5310343;26;26059;-91
2023/10/30 10:36:49;;;;;;;0.00;0.00;;;;;;;23.98;60.49;99277.16;5308333;26;20056;-91
2023/10/30 10:39:14;;;;;;;0.00;0.00;;;;;;;23.95;60.49;99282.75;5308282;26;20056;-91
2023/10/30 10:41:39;;;;;;;0.15;0.13;;;;;;;24.01;60.49;99285.66;5308301;26;20385;-91
2023/10/30 10:44:05;;;;;;;0.00;0.00;;;;;;;23.83;60.48;99288.22;5307608;26;20060;-90
2023/10/30 10:46:30;;;;;;;1.45;0.15;;;;;;;24.00;60.49;99277.84;5307719;26;20060;-92
2023/10/30 10:48:56;;;;;;;0.10;0.10;;;;;;;23.94;60.48;99286.41;5307951;26;20103;-91
2023/10/30 10:51:43;;;;;;;0.00;0.00;;;;;;;23.93;60.48;99269.63;5307898;26;20150;-89
2023/10/30 10:54:23;;;;;;;0.00;0.00;;;;;;;23.84;60.48;99265.97;5310686;26;20052;-91
2023/10/30 10:56:51;;;;;;;0.25;0.25;;;;;;;23.96;60.48;99261.34;5289758;26;20064;-92
2023/10/30 10:59:16;;;;;;;0.00;0.00;;;;;;;23.98;60.49;99263.84;5289925;26;20160;-90
2023/10/30 11:01:42;;;;;;;0.00;0.00;;;;;;;23.91;60.49;99266.25;5308082;26;20348;-93
2023/10/30 11:04:09;;;;;;;0.55;0.50;;;;;;;23.99;60.49;99265.53;5307792;26;20072;-93
2023/10/30 11:06:37;;;;;;;0.00;0.00;;;;;;;24.04;60.48;99273.91;5307877;26;20028;-93
2023/10/30 11:09:07;;;;;;;0.03;0.03;;;;;;;24.13;60.50;99268.56;5290049;26;20852;-93
2023/10/30 11:11:49;;;;;;;0.00;0.00;;;;;;;23.94;60.48;99273.94;5290189;26;20048;-93
2023/10/30 11:14:22;;;;;;;0.00;0.00;;;;;;;24.04;60.48;99269.41;5309954;26;20338;-93
2023/10/30 11:17:14;;;;;;;0.22;0.22;;;;;;;24.10;60.48;99257.34;5290289;26;20433;-93
2023/10/30 11:19:41;;;;;;;0.57;0.55;;;;;;;24.26;60.50;99246.09;5322561;26;20052;-90
2023/10/30 11:22:06;;;;;;;0.00;0.00;;;;;;;24.29;60.51;99251.12;5289983;26;20066;-91
2023/10/30 11:24:42;;;;;;;1.55;0.80;;;;;;;24.35;60.50;99247.88;5307959;26;20086;-92
2023/10/30 11:27:25;;;;;;;0.00;0.00;;;;;;;24.37;60.51;99243.22;5308320;26;20061;-92
2023/10/30 11:30:01;;;;;;;0.03;0.03;;;;;;;24.41;60.51;99242.81;5326384;26;20048;-90